Check out our new BloomSky Weather System.

Active alerts


No alerts


Thunder radar  blitzortung!


Rain radar more information rain snow radar


Visit our other weather sites:

Template documentation
and downloads

And another site



Weather Underground History page Text

Daily Summary for January 28, 2017 Units:  Metric    English   Both
« Previous Day
Next Day »
Daily Weekly Monthly Yearly Custom
  High: Low: Average:
Temperature: 15.9 °C 5.4 °C 10.5 °C
Dew Point: 3.1 °C -3 °C 0.1 °C
Humidity: 69 % 29 % 50 %
Wind Speed: 12.9 km/h 0 km/h 2.9 km/h
Wind Gust: 22.5 km/h - -
Wind:- - West
Pressure: 1028.7 hPa 1022.9 hPa -
Precipitation: 0 mm    
Historical Graphs
 
 
Tabular Data for January 28, 2017
Time Temperature Dew Point Pressure Wind Wind Speed Wind Gust Humidity Rainfall Rate (Hourly)
00:01 9.6 °C -1.2 °C 1026.3 hPa NW 3.2 km/h 4.8 km/h 47 % 0 mm
00:06 9.6 °C -1.2 °C 1026.3 hPa Calm   4.8 km/h 47 % 0 mm
00:11 9.6 °C -0.9 °C 1026.3 hPa Calm   4.8 km/h 48 % 0 mm
00:16 9.6 °C -0.6 °C 1026.3 hPa Calm   3.2 km/h 49 % 0 mm
00:21 9.5 °C -0.4 °C 1026.3 hPa Calm   1.6 km/h 50 % 0 mm
00:26 9.4 °C -0.2 °C 1026.3 hPa Calm   1.6 km/h 51 % 0 mm
00:31 9.3 °C -0.6 °C 1026 hPa West 1.6 km/h 1.6 km/h 50 % 0 mm
00:36 9.3 °C -0.6 °C 1026.3 hPa WNW 1.6 km/h 1.6 km/h 50 % 0 mm
00:41 9.3 °C -0.3 °C 1026.3 hPa Calm   1.6 km/h 51 % 0 mm
00:46 9.3 °C -0.6 °C 1026.3 hPa NNW 3.2 km/h 3.2 km/h 50 % 0 mm
00:51 9.3 °C -0.6 °C 1026.3 hPa Calm   3.2 km/h 50 % 0 mm
00:56 9.3 °C -0.3 °C 1026.3 hPa Calm   3.2 km/h 51 % 0 mm
01:01 9.2 °C -0.4 °C 1026.3 hPa West 1.6 km/h 3.2 km/h 51 % 0 mm
01:06 9.2 °C -0.4 °C 1026.3 hPa NW 1.6 km/h 3.2 km/h 51 % 0 mm
01:11 9.2 °C -0.4 °C 1026.3 hPa NW 1.6 km/h 4.8 km/h 51 % 0 mm
01:16 9.2 °C -0.4 °C 1026.3 hPa NNW 1.6 km/h 4.8 km/h 51 % 0 mm
01:21 9.2 °C -0.1 °C 1026.6 hPa NW 4.8 km/h 6.4 km/h 52 % 0 mm
01:26 9.2 °C -0.1 °C 1026.3 hPa NW 3.2 km/h 8 km/h 52 % 0 mm
01:31 9.2 °C -0.1 °C 1026.3 hPa NW 3.2 km/h 8 km/h 52 % 0 mm
01:36 9.2 °C 0.1 °C 1026 hPa Calm   8 km/h 53 % 0 mm
01:41 9.2 °C 0.1 °C 1026.3 hPa NNW 3.2 km/h 8 km/h 53 % 0 mm
01:46 9.2 °C 0.1 °C 1026.3 hPa NW 3.2 km/h 8 km/h 53 % 0 mm
01:51 9.3 °C 0.2 °C 1026.3 hPa WNW 4.8 km/h 8 km/h 53 % 0 mm
01:56 9.2 °C 0.1 °C 1026.3 hPa NW 4.8 km/h 8 km/h 53 % 0 mm
02:01 9.2 °C 0.4 °C 1026.3 hPa NW 4.8 km/h 6.4 km/h 54 % 0 mm
02:06 9.3 °C 0.2 °C 1026.3 hPa NW 4.8 km/h 11.3 km/h 53 % 0 mm
02:11 9.3 °C 0.2 °C 1026 hPa NW 4.8 km/h 11.3 km/h 53 % 0 mm
02:16 9.3 °C 0.5 °C 1026.3 hPa NW 3.2 km/h 11.3 km/h 54 % 0 mm
02:21 9.3 °C 0.5 °C 1026.3 hPa NW 4.8 km/h 11.3 km/h 54 % 0 mm
02:26 9.3 °C 0.7 °C 1026 hPa WNW 3.2 km/h 8 km/h 55 % 0 mm
02:31 9.4 °C 0.6 °C 1026 hPa NW 1.6 km/h 8 km/h 54 % 0 mm
02:36 9.4 °C 0.6 °C 1026 hPa NW 3.2 km/h 9.7 km/h 54 % 0 mm
02:42 9.4 °C 0.6 °C 1026 hPa NW 6.4 km/h 9.7 km/h 54 % 0 mm
02:47 9.5 °C 0.4 °C 1025.6 hPa NNW 6.4 km/h 14.5 km/h 53 % 0 mm
02:52 9.6 °C 0.5 °C 1025.3 hPa WNW 8 km/h 14.5 km/h 53 % 0 mm
02:57 9.6 °C 0.2 °C 1025.3 hPa NNW 4.8 km/h 14.5 km/h 52 % 0 mm
03:02 9.6 °C 0.2 °C 1025.3 hPa WNW 8 km/h 14.5 km/h 52 % 0 mm
03:07 9.6 °C 0 °C 1024.9 hPa West 6.4 km/h 14.5 km/h 51 % 0 mm
03:12 9.7 °C 0 °C 1024.9 hPa NW 11.3 km/h 16.1 km/h 51 % 0 mm
03:17 9.7 °C 0 °C 1024.9 hPa NW 6.4 km/h 16.1 km/h 51 % 0 mm
03:22 9.7 °C 0 °C 1024.6 hPa NNW 3.2 km/h 16.1 km/h 51 % 0 mm
03:27 9.6 °C 0 °C 1024.3 hPa NW 9.7 km/h 14.5 km/h 51 % 0 mm
03:32 9.6 °C -0.3 °C 1024.3 hPa NNW 9.7 km/h 12.9 km/h 50 % 0 mm
03:37 9.7 °C -0.5 °C 1024.3 hPa NW 9.7 km/h 14.5 km/h 49 % 0 mm
03:42 9.7 °C -0.8 °C 1024.6 hPa NW 3.2 km/h 16.1 km/h 48 % 0 mm
03:47 9.7 °C -0.5 °C 1024.9 hPa NNW 4.8 km/h 16.1 km/h 49 % 0 mm
03:52 9.7 °C -0.8 °C 1024.9 hPa NNW 1.6 km/h 16.1 km/h 48 % 0 mm
03:57 9.7 °C -0.8 °C 1024.9 hPa NW 8 km/h 12.9 km/h 48 % 0 mm
04:02 9.7 °C -0.5 °C 1024.9 hPa NW 6.4 km/h 12.9 km/h 49 % 0 mm
04:07 9.7 °C -0.8 °C 1024.9 hPa NNW 1.6 km/h 9.7 km/h 48 % 0 mm
04:12 9.7 °C -0.8 °C 1024.9 hPa NNW 3.2 km/h 11.3 km/h 48 % 0 mm
04:17 9.7 °C -0.8 °C 1024.9 hPa West 1.6 km/h 11.3 km/h 48 % 0 mm
04:22 9.7 °C -0.8 °C 1025.3 hPa WNW 1.6 km/h 11.3 km/h 48 % 0 mm
04:27 9.6 °C -0.6 °C 1025.6 hPa Calm   8 km/h 49 % 0 mm
04:32 9.6 °C -0.6 °C 1025.3 hPa NW 3.2 km/h 6.4 km/h 49 % 0 mm
04:37 9.5 °C -0.7 °C 1025.6 hPa WNW 1.6 km/h 4.8 km/h 49 % 0 mm
04:42 9.4 °C -0.5 °C 1026 hPa Calm   4.8 km/h 50 % 0 mm
04:47 9.4 °C -0.2 °C 1026 hPa Calm   4.8 km/h 51 % 0 mm
04:52 9.3 °C -0.1 °C 1026 hPa Calm   3.2 km/h 52 % 0 mm
04:57 9.3 °C -0.1 °C 1026 hPa Calm   3.2 km/h 52 % 0 mm
05:02 9.2 °C -0.1 °C 1026 hPa Calm   3.2 km/h 52 % 0 mm
05:07 9.2 °C 0.1 °C 1026.3 hPa Calm   1.6 km/h 53 % 0 mm
05:12 9.1 °C 0.3 °C 1026.3 hPa WNW 1.6 km/h 1.6 km/h 54 % 0 mm
05:17 9.1 °C 0 °C 1026.3 hPa Calm   4.8 km/h 53 % 0 mm
05:22 9.1 °C 0 °C 1026.3 hPa WSW 1.6 km/h 4.8 km/h 53 % 0 mm
05:27 9.1 °C 0 °C 1026.3 hPa Calm   4.8 km/h 53 % 0 mm
05:32 9.1 °C 0 °C 1026.3 hPa Calm   4.8 km/h 53 % 0 mm
05:37 9.1 °C 0.3 °C 1026.6 hPa WNW 1.6 km/h 4.8 km/h 54 % 0 mm
05:42 9 °C 0.2 °C 1026.6 hPa Calm   4.8 km/h 54 % 0 mm
05:47 8.9 °C 0.1 °C 1026.6 hPa Calm   3.2 km/h 54 % 0 mm
05:52 8.9 °C 0.3 °C 1026.6 hPa Calm   3.2 km/h 55 % 0 mm
05:57 8.8 °C 0.7 °C 1026.6 hPa Calm   1.6 km/h 57 % 0 mm
06:02 8.7 °C 0.7 °C 1026.6 hPa Calm   3.2 km/h 57 % 0 mm
06:07 8.7 °C 0.9 °C 1027 hPa Calm   3.2 km/h 58 % 0 mm
06:12 8.6 °C 0.8 °C 1026.6 hPa NNW 3.2 km/h 4.8 km/h 58 % 0 mm
06:17 8.7 °C 0.9 °C 1027 hPa Calm   4.8 km/h 58 % 0 mm
06:22 8.7 °C 0.9 °C 1027 hPa Calm   4.8 km/h 58 % 0 mm
06:27 8.7 °C 1.1 °C 1026.6 hPa Calm   4.8 km/h 59 % 0 mm
06:32 8.6 °C 1 °C 1026.6 hPa WSW 1.6 km/h 3.2 km/h 59 % 0 mm
06:37 8.6 °C 1 °C 1027 hPa WSW 1.6 km/h 3.2 km/h 59 % 0 mm
06:42 8.6 °C 1 °C 1027 hPa Calm   3.2 km/h 59 % 0 mm
06:47 8.6 °C 1.3 °C 1027 hPa SW 1.6 km/h 3.2 km/h 60 % 0 mm
06:52 8.5 °C 1.2 °C 1027 hPa Calm   3.2 km/h 60 % 0 mm
06:57 8.4 °C 1.3 °C 1027 hPa Calm   3.2 km/h 61 % 0 mm
07:02 8.4 °C 1.5 °C 1027 hPa WSW 1.6 km/h 3.2 km/h 62 % 0 mm
07:07 8.3 °C 1.4 °C 1027.3 hPa WSW 3.2 km/h 3.2 km/h 62 % 0 mm
07:12 8.3 °C 1.4 °C 1027.3 hPa Calm   4.8 km/h 62 % 0 mm
07:17 8.4 °C 1.5 °C 1027.3 hPa WSW 1.6 km/h 6.4 km/h 62 % 0 mm
07:22 8.4 °C 1.5 °C 1027.3 hPa SW 1.6 km/h 6.4 km/h 62 % 0 mm
07:27 8.3 °C 1.4 °C 1027.3 hPa Calm   6.4 km/h 62 % 0 mm
07:32 8.3 °C 1.7 °C 1027.7 hPa Calm   3.2 km/h 63 % 0 mm
07:37 8.3 °C 1.9 °C 1027.7 hPa Calm   3.2 km/h 64 % 0 mm
07:42 8.3 °C 1.9 °C 1027.7 hPa WNW 3.2 km/h 4.8 km/h 64 % 0 mm
07:47 8.3 °C 1.9 °C 1027.7 hPa WSW 3.2 km/h 4.8 km/h 64 % 0 mm
07:52 8.3 °C 2.1 °C 1027.7 hPa WSW 1.6 km/h 4.8 km/h 65 % 0 mm
07:57 8.4 °C 2.2 °C 1028 hPa Calm   6.4 km/h 65 % 0 mm
08:02 8.4 °C 2.2 °C 1028 hPa Calm   8 km/h 65 % 0 mm
08:07 8.4 °C 2.2 °C 1028 hPa West 3.2 km/h 8 km/h 65 % 0 mm
08:12 8.5 °C 2.5 °C 1028.3 hPa WSW 1.6 km/h 8 km/h 66 % 0 mm
08:17 8.6 °C 2.4 °C 1028 hPa West 9.7 km/h 9.7 km/h 65 % 0 mm
08:22 8.6 °C 2.2 °C 1028.3 hPa SSE 1.6 km/h 12.9 km/h 64 % 0 mm
08:27 8.7 °C 2.3 °C 1028.3 hPa Calm   12.9 km/h 64 % 0 mm
08:32 8.7 °C 2.3 °C 1028.3 hPa NW 6.4 km/h 12.9 km/h 64 % 0 mm
08:37 8.7 °C 2.3 °C 1028.3 hPa West 4.8 km/h 12.9 km/h 64 % 0 mm
08:42 8.8 °C 2.4 °C 1028.7 hPa NW 6.4 km/h 12.9 km/h 64 % 0 mm
08:47 8.9 °C 2.5 °C 1028.7 hPa Calm   11.3 km/h 64 % 0 mm
08:52 9 °C 2.6 °C 1028.3 hPa WSW 8 km/h 8 km/h 64 % 0 mm
08:57 9.1 °C 2.4 °C 1028.3 hPa NNW 1.6 km/h 12.9 km/h 63 % 0 mm
09:02 9.1 °C 2.4 °C 1028.3 hPa West 1.6 km/h 12.9 km/h 63 % 0 mm
09:07 9.1 °C 2.4 °C 1028.3 hPa North 1.6 km/h 12.9 km/h 63 % 0 mm
09:12 9.2 °C 2.3 °C 1028.7 hPa NNW 8 km/h 12.9 km/h 62 % 0 mm
09:17 9.3 °C 2.4 °C 1028.7 hPa Calm   14.5 km/h 62 % 0 mm
09:22 9.5 °C 2.4 °C 1028.7 hPa NW 3.2 km/h 14.5 km/h 61 % 0 mm
09:27 9.6 °C 2.7 °C 1028.7 hPa NW 4.8 km/h 14.5 km/h 62 % 0 mm
09:32 9.7 °C 2.5 °C 1028.7 hPa NW 4.8 km/h 11.3 km/h 61 % 0 mm
09:37 9.8 °C 2.4 °C 1028.3 hPa NW 6.4 km/h 11.3 km/h 60 % 0 mm
09:42 9.8 °C 2.4 °C 1028.7 hPa NNW 3.2 km/h 12.9 km/h 60 % 0 mm
09:47 9.9 °C 2.5 °C 1028.7 hPa NW 11.3 km/h 12.9 km/h 60 % 0 mm
09:52 10.2 °C 2.3 °C 1028.7 hPa NNW 6.4 km/h 12.9 km/h 58 % 0 mm
09:57 10.3 °C 2.6 °C 1028.7 hPa Calm   12.9 km/h 59 % 0 mm
10:02 10.4 °C 2 °C 1028.7 hPa NW 8 km/h 12.9 km/h 56 % 0 mm
10:07 10.6 °C 2.2 °C 1028.7 hPa WNW 4.8 km/h 12.9 km/h 56 % 0 mm
10:12 10.9 °C 2.5 °C 1028.7 hPa WSW 1.6 km/h 12.9 km/h 56 % 0 mm
10:17 11 °C 2 °C 1028.7 hPa West 4.8 km/h 14.5 km/h 54 % 0 mm
10:22 10.9 °C 2 °C 1028.3 hPa NNE 8 km/h 14.5 km/h 54 % 0 mm
10:28 10.8 °C 2.1 °C 1028.3 hPa West 3.2 km/h 14.5 km/h 55 % 0 mm
10:33 11 °C 2.3 °C 1028.3 hPa NNW 4.8 km/h 12.9 km/h 55 % 0 mm
10:38 11.2 °C 2.2 °C 1028 hPa WNW 4.8 km/h 12.9 km/h 54 % 0 mm
10:43 11.4 °C 1.9 °C 1028 hPa WNW 8 km/h 12.9 km/h 52 % 0 mm
10:48 11.2 °C 1.4 °C 1028.3 hPa NW 8 km/h 12.9 km/h 51 % 0 mm
10:53 11.3 °C 2.3 °C 1028.3 hPa Calm   17.7 km/h 54 % 0 mm
10:58 11.7 °C 2.7 °C 1028 hPa SW 1.6 km/h 17.7 km/h 54 % 0 mm
11:03 12.1 °C 2.5 °C 1028 hPa West 3.2 km/h 17.7 km/h 52 % 0 mm
11:08 12.4 °C 3.1 °C 1028 hPa NNE 3.2 km/h 12.9 km/h 53 % 0 mm
11:13 12.3 °C 1.6 °C 1027.7 hPa NNW 4.8 km/h 14.5 km/h 48 % 0 mm
11:18 12.4 °C 2 °C 1027.7 hPa NNW 11.3 km/h 16.1 km/h 49 % 0 mm
11:23 12.2 °C 2.6 °C 1027.7 hPa WNW 4.8 km/h 16.1 km/h 52 % 0 mm
11:28 12.4 °C 2.5 °C 1028 hPa WNW 3.2 km/h 16.1 km/h 51 % 0 mm
11:33 12.4 °C 2.3 °C 1027.7 hPa WSW 9.7 km/h 16.1 km/h 50 % 0 mm
11:38 12.6 °C 2.4 °C 1027.7 hPa WSW 4.8 km/h 14.5 km/h 50 % 0 mm
11:43 12.8 °C 2.3 °C 1027.7 hPa West 11.3 km/h 11.3 km/h 49 % 0 mm
11:48 13.3 °C 2.5 °C 1027.7 hPa SW 3.2 km/h 11.3 km/h 48 % 0 mm
11:53 13.3 °C 1.6 °C 1027.3 hPa NW 6.4 km/h 14.5 km/h 45 % 0 mm
11:58 13.2 °C 1.5 °C 1027.3 hPa WNW 3.2 km/h 16.1 km/h 45 % 0 mm
12:03 13.6 °C 1.9 °C 1027 hPa WSW 3.2 km/h 16.1 km/h 45 % 0 mm
12:08 13.9 °C 1.8 °C 1027 hPa West 3.2 km/h 16.1 km/h 44 % 0 mm
12:13 14.1 °C 2 °C 1027 hPa West 1.6 km/h 14.5 km/h 44 % 0 mm
12:15 14.2 °C 1.8 °C 1027 hPa West 1.6 km/h 14.5 km/h 43 % 0 mm
12:20 14 °C 0.3 °C 1026.6 hPa NNE 4.8 km/h 16.1 km/h 39 % 0 mm
12:25 13.7 °C 0 °C 1026.6 hPa North 3.2 km/h 16.1 km/h 39 % 0 mm
12:30 13.8 °C 0.4 °C 1026.6 hPa WNW 3.2 km/h 16.1 km/h 40 % 0 mm
12:35 13.9 °C 0.2 °C 1026.3 hPa NW 4.8 km/h 16.1 km/h 39 % 0 mm
12:40 13.8 °C -0.3 °C 1026.3 hPa NW 9.7 km/h 12.9 km/h 38 % 0 mm
12:45 13.7 °C 0.3 °C 1026.3 hPa North 6.4 km/h 16.1 km/h 40 % 0 mm
12:50 14.1 °C 0.3 °C 1026.3 hPa WNW 6.4 km/h 16.1 km/h 39 % 0 mm
12:55 14.6 °C 0.1 °C 1026 hPa NNE 1.6 km/h 16.1 km/h 37 % 0 mm
13:00 14.3 °C -0.2 °C 1026 hPa WSW 3.2 km/h 16.1 km/h 37 % 0 mm
13:05 14.6 °C 0.4 °C 1026 hPa SE 1.6 km/h 16.1 km/h 38 % 0 mm
13:10 14.6 °C -0.7 °C 1025.6 hPa NNW 4.8 km/h 16.1 km/h 35 % 0 mm
13:15 14.5 °C -0.8 °C 1025.6 hPa NNW 6.4 km/h 16.1 km/h 35 % 0 mm
13:20 14.3 °C -0.6 °C 1025.6 hPa SSW 4.8 km/h 17.7 km/h 36 % 0 mm
13:25 14 °C -0.8 °C 1025.3 hPa NW 9.7 km/h 17.7 km/h 36 % 0 mm
13:30 14.4 °C 0.3 °C 1025.3 hPa WNW 1.6 km/h 17.7 km/h 38 % 0 mm
13:35 15 °C 0.4 °C 1024.9 hPa WSW 6.4 km/h 16.1 km/h 37 % 0 mm
13:40 15.3 °C 0.3 °C 1024.9 hPa SSW 3.2 km/h 16.1 km/h 36 % 0 mm
13:45 15.3 °C 0.7 °C 1024.9 hPa WSW 1.6 km/h 12.9 km/h 37 % 0 mm
13:50 15.5 °C 0.5 °C 1024.6 hPa WSW 6.4 km/h 12.9 km/h 36 % 0 mm
13:55 15.2 °C -0.2 °C 1024.6 hPa NNW 11.3 km/h 16.1 km/h 35 % 0 mm
14:00 15.1 °C 0.1 °C 1024.6 hPa NNW 8 km/h 16.1 km/h 36 % 0 mm
14:01 15.2 °C 0.2 °C 1024.6 hPa ENE 1.6 km/h 16.1 km/h 36 % 0 mm
14:06 15.4 °C -0.4 °C 1024.3 hPa WSW 9.7 km/h 16.1 km/h 34 % 0 mm
14:11 15.4 °C -1.2 °C 1024.3 hPa WNW 11.3 km/h 16.1 km/h 32 % 0 mm
14:16 15.1 °C -1.5 °C 1024.3 hPa WNW 6.4 km/h 17.7 km/h 32 % 0 mm
14:21 15.4 °C -1.2 °C 1024.3 hPa WSW 4.8 km/h 17.7 km/h 32 % 0 mm
14:26 15.5 °C -1.1 °C 1023.9 hPa NW 6.4 km/h 17.7 km/h 32 % 0 mm
14:31 15.5 °C -1.1 °C 1023.9 hPa WNW 8 km/h 16.1 km/h 32 % 0 mm
14:36 15.3 °C -2.2 °C 1023.9 hPa NW 6.4 km/h 17.7 km/h 30 % 0 mm
14:41 15.3 °C -0.5 °C 1023.6 hPa NNW 6.4 km/h 17.7 km/h 34 % 0 mm
14:46 15.7 °C -1 °C 1023.6 hPa NW 4.8 km/h 17.7 km/h 32 % 0 mm
14:51 15.7 °C -1 °C 1023.6 hPa NNW 3.2 km/h 16.1 km/h 32 % 0 mm
14:56 15.4 °C -1.7 °C 1023.6 hPa NNW 6.4 km/h 19.3 km/h 31 % 0 mm
15:01 15.3 °C -1.7 °C 1023.2 hPa WNW 12.9 km/h 19.3 km/h 31 % 0 mm
15:06 15.3 °C -1.3 °C 1023.2 hPa North 8 km/h 19.3 km/h 32 % 0 mm
15:11 15.7 °C -0.5 °C 1023.2 hPa WNW 4.8 km/h 19.3 km/h 33 % 0 mm
15:16 15.8 °C 0 °C 1023.2 hPa WSW 4.8 km/h 19.3 km/h 34 % 0 mm
15:21 15.8 °C -0.4 °C 1023.2 hPa SW 4.8 km/h 12.9 km/h 33 % 0 mm
15:26 15.9 °C -0.4 °C 1023.2 hPa Calm   12.9 km/h 33 % 0 mm
15:31 15.8 °C -1.3 °C 1023.2 hPa North 3.2 km/h 12.9 km/h 31 % 0 mm
15:36 15.8 °C -0.9 °C 1023.2 hPa ENE 9.7 km/h 11.3 km/h 32 % 0 mm
15:41 15.9 °C -0.8 °C 1022.9 hPa SW 1.6 km/h 11.3 km/h 32 % 0 mm
15:46 15.9 °C -1.7 °C 1022.9 hPa NNW 11.3 km/h 20.9 km/h 30 % 0 mm
15:51 15.8 °C -1.7 °C 1023.2 hPa SW 6.4 km/h 20.9 km/h 30 % 0 mm
15:56 15.8 °C -2.2 °C 1023.2 hPa WNW 4.8 km/h 20.9 km/h 29 % 0 mm
16:01 15.8 °C -1.7 °C 1023.2 hPa WNW 3.2 km/h 20.9 km/h 30 % 0 mm
16:06 15.8 °C -1.7 °C 1023.2 hPa West 6.4 km/h 20.9 km/h 30 % 0 mm
16:11 15.9 °C -1.7 °C 1023.2 hPa WNW 6.4 km/h 17.7 km/h 30 % 0 mm
16:16 15.7 °C -1.8 °C 1023.2 hPa Calm   17.7 km/h 30 % 0 mm
16:21 15.8 °C -1.3 °C 1023.2 hPa WNW 6.4 km/h 17.7 km/h 31 % 0 mm
16:26 15.7 °C -1.8 °C 1023.2 hPa WNW 6.4 km/h 17.7 km/h 30 % 0 mm
16:31 15.6 °C -2.4 °C 1023.2 hPa WNW 11.3 km/h 22.5 km/h 29 % 0 mm
16:36 15.5 °C -2 °C 1023.2 hPa North 3.2 km/h 22.5 km/h 30 % 0 mm
16:41 15.4 °C -2.6 °C 1023.2 hPa WNW 1.6 km/h 22.5 km/h 29 % 0 mm
16:46 15.4 °C -2.1 °C 1023.2 hPa NW 3.2 km/h 20.9 km/h 30 % 0 mm
16:51 15.4 °C -2.1 °C 1023.2 hPa NW 3.2 km/h 19.3 km/h 30 % 0 mm
16:56 15.3 °C -2.2 °C 1023.2 hPa West 1.6 km/h 14.5 km/h 30 % 0 mm
17:01 15.3 °C -2.2 °C 1023.2 hPa NNW 11.3 km/h 12.9 km/h 30 % 0 mm
17:06 15.2 °C -2.3 °C 1023.2 hPa West 3.2 km/h 14.5 km/h 30 % 0 mm
17:11 15.1 °C -2.4 °C 1023.2 hPa WNW 9.7 km/h 14.5 km/h 30 % 0 mm
17:16 15 °C -2 °C 1023.2 hPa WNW 4.8 km/h 17.7 km/h 31 % 0 mm
17:22 14.9 °C -2.1 °C 1023.2 hPa WNW 4.8 km/h 17.7 km/h 31 % 0 mm
17:27 14.8 °C -2.6 °C 1023.2 hPa NW 4.8 km/h 17.7 km/h 30 % 0 mm
17:32 14.6 °C -2.8 °C 1023.2 hPa NW 4.8 km/h 14.5 km/h 30 % 0 mm
17:37 14.4 °C -3 °C 1023.2 hPa NNE 4.8 km/h 17.7 km/h 30 % 0 mm
17:42 14.4 °C -3 °C 1023.6 hPa NW 4.8 km/h 20.9 km/h 30 % 0 mm
17:47 14.3 °C -2.6 °C 1023.2 hPa WNW 4.8 km/h 20.9 km/h 31 % 0 mm
17:52 14.1 °C -2.4 °C 1023.6 hPa Calm   20.9 km/h 32 % 0 mm
17:57 13.9 °C -2.1 °C 1023.6 hPa NW 1.6 km/h 16.1 km/h 33 % 0 mm
18:02 13.7 °C -2.3 °C 1023.6 hPa WNW 1.6 km/h 9.7 km/h 33 % 0 mm
18:07 13.5 °C -2.1 °C 1023.6 hPa WNW 1.6 km/h 6.4 km/h 34 % 0 mm
18:12 13.2 °C -2.3 °C 1023.6 hPa WSW 1.6 km/h 4.8 km/h 34 % 0 mm
18:17 13 °C -2.1 °C 1023.6 hPa North 1.6 km/h 4.8 km/h 35 % 0 mm
18:22 12.8 °C -1.9 °C 1023.6 hPa Calm   3.2 km/h 36 % 0 mm
18:27 12.6 °C -2.1 °C 1023.9 hPa Calm   3.2 km/h 36 % 0 mm
18:32 12.3 °C -2 °C 1023.9 hPa Calm   3.2 km/h 37 % 0 mm
18:37 12 °C -1.9 °C 1023.9 hPa Calm   3.2 km/h 38 % 0 mm
18:42 11.6 °C -1.9 °C 1023.9 hPa Calm   1.6 km/h 39 % 0 mm
18:47 11.2 °C -1.9 °C 1023.9 hPa Calm   1.6 km/h 40 % 0 mm
18:52 10.8 °C -1.9 °C 1023.9 hPa Calm   1.6 km/h 41 % 0 mm
18:57 10.3 °C -1.7 °C 1023.9 hPa Calm   1.6 km/h 43 % 0 mm
19:02 9.9 °C -1.8 °C 1023.9 hPa Calm     44 % 0 mm
19:07 9.5 °C -1.6 °C 1024.3 hPa Calm     46 % 0 mm
19:12 9.3 °C -1.4 °C 1024.3 hPa Calm     47 % 0 mm
19:17 9.1 °C -1.3 °C 1024.3 hPa Calm     48 % 0 mm
19:22 8.9 °C -1 °C 1024.3 hPa Calm     50 % 0 mm
19:27 8.9 °C -1 °C 1024.3 hPa Calm     50 % 0 mm
19:32 8.8 °C -0.8 °C 1024.3 hPa Calm     51 % 0 mm
19:38 8.5 °C -0.8 °C 1024.3 hPa Calm     52 % 0 mm
19:43 8.2 °C -0.6 °C 1024.3 hPa Calm     54 % 0 mm
19:48 7.8 °C -0.9 °C 1024.3 hPa Calm     54 % 0 mm
19:53 7.5 °C -0.5 °C 1024.6 hPa Calm     57 % 0 mm
19:58 7.4 °C -0.3 °C 1024.3 hPa Calm     58 % 0 mm
20:03 7.2 °C -0.8 °C 1024.3 hPa Calm     57 % 0 mm
20:08 6.9 °C -0.8 °C 1024.3 hPa Calm     58 % 0 mm
20:13 6.7 °C -0.5 °C 1024.3 hPa Calm     60 % 0 mm
20:18 6.7 °C -0.1 °C 1024.3 hPa Calm     62 % 0 mm
20:23 6.6 °C -0.2 °C 1024.6 hPa Calm     62 % 0 mm
20:28 6.6 °C -0.2 °C 1024.6 hPa Calm     62 % 0 mm
20:33 6.6 °C 0.1 °C 1024.6 hPa Calm     63 % 0 mm
20:38 6.6 °C 0.1 °C 1024.6 hPa Calm     63 % 0 mm
20:43 6.7 °C 0.2 °C 1024.6 hPa Calm     63 % 0 mm
20:48 6.7 °C 0.4 °C 1024.6 hPa Calm     64 % 0 mm
20:53 6.7 °C 0.4 °C 1024.6 hPa Calm   1.6 km/h 64 % 0 mm
20:58 6.7 °C 0.6 °C 1024.6 hPa Calm   1.6 km/h 65 % 0 mm
21:02 6.7 °C 0.6 °C 1024.6 hPa Calm   1.6 km/h 65 % 0 mm
21:07 6.7 °C 0.4 °C 1024.6 hPa Calm   1.6 km/h 64 % 0 mm
21:12 6.6 °C 0.5 °C 1024.9 hPa Calm   1.6 km/h 65 % 0 mm
21:17 6.5 °C 0.4 °C 1024.9 hPa Calm     65 % 0 mm
21:22 6.4 °C 0.3 °C 1024.9 hPa Calm     65 % 0 mm
21:27 6.3 °C 0 °C 1024.9 hPa Calm     64 % 0 mm
21:32 6.2 °C 0.1 °C 1024.9 hPa Calm     65 % 0 mm
21:37 6.2 °C 0.1 °C 1024.9 hPa Calm   1.6 km/h 65 % 0 mm
21:42 6.2 °C 0.1 °C 1024.9 hPa Calm   1.6 km/h 65 % 0 mm
21:47 6.2 °C 0.1 °C 1024.9 hPa Calm   1.6 km/h 65 % 0 mm
21:52 6.2 °C 0.3 °C 1024.9 hPa Calm     66 % 0 mm
21:57 6.3 °C 0.4 °C 1024.9 hPa Calm     66 % 0 mm
22:02 6.2 °C 0.1 °C 1024.9 hPa Calm     65 % 0 mm
22:07 6.2 °C 0.3 °C 1024.9 hPa Calm     66 % 0 mm
22:12 6.1 °C 0.2 °C 1024.9 hPa Calm     66 % 0 mm
22:17 6 °C 0.3 °C 1024.9 hPa Calm     67 % 0 mm
22:22 6.1 °C 0.6 °C 1024.9 hPa Calm     68 % 0 mm
22:27 5.9 °C 0.2 °C 1024.9 hPa Calm     67 % 0 mm
22:32 5.7 °C 0.1 °C 1024.9 hPa Calm     67 % 0 mm
22:37 5.5 °C 0.1 °C 1024.9 hPa Calm     68 % 0 mm
22:42 5.4 °C 0.2 °C 1024.9 hPa Calm   1.6 km/h 69 % 0 mm
22:47 5.5 °C 0.3 °C 1024.9 hPa Calm   1.6 km/h 69 % 0 mm
22:52 5.6 °C 0.4 °C 1024.9 hPa Calm   1.6 km/h 69 % 0 mm
22:57 5.7 °C 0.5 °C 1024.9 hPa Calm   1.6 km/h 69 % 0 mm
23:02 5.8 °C 0.4 °C 1024.9 hPa Calm   1.6 km/h 68 % 0 mm
23:07 5.7 °C 0.3 °C 1024.9 hPa Calm   1.6 km/h 68 % 0 mm
23:12 5.8 °C 0.4 °C 1024.9 hPa Calm   1.6 km/h 68 % 0 mm
23:17 5.8 °C 0.1 °C 1024.9 hPa Calm   1.6 km/h 67 % 0 mm
23:22 5.9 °C 0.4 °C 1024.9 hPa Calm   1.6 km/h 68 % 0 mm
23:27 5.9 °C 0.2 °C 1024.9 hPa Calm   1.6 km/h 67 % 0 mm
23:32 5.9 °C 0.2 °C 1024.9 hPa Calm   1.6 km/h 67 % 0 mm
23:37 5.9 °C 0.2 °C 1024.9 hPa Calm   1.6 km/h 67 % 0 mm
23:42 5.8 °C 0.1 °C 1024.9 hPa Calm   1.6 km/h 67 % 0 mm
23:47 5.7 °C 0.1 °C 1024.9 hPa Calm   1.6 km/h 67 % 0 mm
23:52 5.7 °C 0.1 °C 1024.9 hPa Calm   1.6 km/h 67 % 0 mm
23:57 5.7 °C 0.1 °C 1024.9 hPa Calm   1.6 km/h 67 % 0 mm
Spring, Texas: Villages of Bridgestone
Compliments of Weather Underground - 2.75 mb

Script developed by  Jim McMurry - jmcmurry@mwt.net Adapted for the template by  Wim van der Kuil - Leuven-Template.eu

You find our weather info also at:

UK Metoffice

WeatherCloud

Weather Underground

Mid-South Weather Network

AWEKAS

Citizen Weather Observer Program (CWOP)

HAMweather, WeatherForYou, PWS Weather

Equipment we use:

Weather-station
Davis Vantage Vue

Weather-program
Meteohub

Weather-server
Debian 7.9 x86 (Guest)

Provider
DreamHost

Davis Vantage Vue

Meteohub

Debian 7.9 x86 (Guest)

DreamHost